CheckWX is a tool to help pilots better visualize weather data.  It is not intended as a substitute for an official pre-flight weather briefing.

01:04:30 UTC

KCVS TAF
Cannon AFB Airport
Clovis, New Mexico, USA
TAF AMD KCVS 200045Z 2000/2024 19010G16KT 9999 FEW090 SCT130 BKN180 QNH3012INS BECMG 2002/2003 16010KT 9999 BKN090 BKN180 QNH3004INS BECMG 2008/2009 VRB05KT 9999 BKN130 QNH3009INS BECMG 2013/2014 16008KT 9999 BKN130 BKN180 QNH3013INS BECMG 2023/2024 19010KT 9999 BKN100CB BKN180 QNH3009INS TX35/2023Z TN20/2012Z

Aug-20@
00:00 UTC

Aug-20 @ 00:00 UTC

Aug-20@
02:00 UTC

Aug-20 @ 02:00 UTC

TAF AMD KCVS 200045Z 2000/2024 19010G16KT 9999 FEW090 SCT130 BKN180 QNH3012INS
Wind
  • 190° at 10 KTS
  • {Gusting to 16 KTS
Cloud Levels
  • Few at 9,000' AGL
  • Scattered at 13,000' AGL
  • Broken at 18,000' AGL

Aug-20@
02:00 UTC

Aug-20 @ 02:00 UTC

Aug-20@
08:00 UTC

Aug-20 @ 08:00 UTC

BECMG 2002/2003 16010KT 9999 BKN090 BKN180 QNH3004INS

Becoming

Becoming Conditions expected by Tue, Aug 20, 2019 @ 03:00 UTC

Wind
  • 160° at 10 KTS
Cloud Levels
  • Broken at 9,000' AGL
  • Broken at 18,000' AGL

Aug-20@
08:00 UTC

Aug-20 @ 08:00 UTC

Aug-20@
13:00 UTC

Aug-20 @ 13:00 UTC

BECMG 2008/2009 VRB05KT 9999 BKN130 QNH3009INS

Becoming

Becoming Conditions expected by Tue, Aug 20, 2019 @ 09:00 UTC

Wind
  • Variable at 5 KTS
Cloud Levels
  • Broken at 13,000' AGL

Aug-20@
13:00 UTC

Aug-20 @ 13:00 UTC

Aug-20@
23:00 UTC

Aug-20 @ 23:00 UTC

BECMG 2013/2014 16008KT 9999 BKN130 BKN180 QNH3013INS

Becoming

Becoming Conditions expected by Tue, Aug 20, 2019 @ 14:00 UTC

Wind
  • 160° at 8 KTS
Cloud Levels
  • Broken at 13,000' AGL
  • Broken at 18,000' AGL

Aug-20@
23:00 UTC

Aug-20 @ 23:00 UTC

Aug-21@
00:00 UTC

Aug-21 @ 00:00 UTC

BECMG 2023/2024 19010KT 9999 BKN100CB BKN180 QNH3009INS TX35/2023Z TN20/2012Z

Becoming

Becoming Conditions expected by Wed, Aug 21, 2019 @ 00:00 UTC

Wind
  • 190° at 10 KTS
Cloud Levels
  • Broken at 10,000' AGL
  • Broken at 18,000' AGL